N449K NFFN-NSFA
Flight info
| Callsign | N449K |
|---|---|
| Flight time | N/A |
| Altitude | 29000 |
| Route | ALPHA NN R453 UVUTI UVUTI2D |
| Aircraft | SF50/L-SDGRWY/L |
Departure
| Time | 2026-05-05 15:16 |
|---|---|
| Airport | Nadi International Airport (NFFN) |
Arrival
| Time | N/A |
|---|---|
| Airport | Faleolo International Airport (NSFA) |
| Time | Latitude | Longitude | Altitude | Speed | Heading |
|---|---|---|---|---|---|
| 2026-05-05 14:59 | -17.75753 | 177.44847 | 57 ft | 0 kts | 338° |
| 2026-05-05 15:09 | -17.75753 | 177.44846 | 57 ft | 0 kts | 325° |
| 2026-05-05 15:09 | -17.75749 | 177.44844 | 57 ft | 1 kts | 333° |
| 2026-05-05 15:10 | -17.75738 | 177.44838 | 56 ft | 2 kts | 319° |
| 2026-05-05 15:10 | -17.75725 | 177.44798 | 56 ft | 6 kts | 272° |
| 2026-05-05 15:10 | -17.75713 | 177.44781 | 56 ft | 0 kts | 335° |
| 2026-05-05 15:10 | -17.75680 | 177.44757 | 56 ft | 10 kts | 328° |
| 2026-05-05 15:11 | -17.75613 | 177.44707 | 55 ft | 12 kts | 329° |
| 2026-05-05 15:11 | -17.75589 | 177.44720 | 55 ft | 6 kts | 66° |
| 2026-05-05 15:11 | -17.75594 | 177.44780 | 55 ft | 10 kts | 103° |
| 2026-05-05 15:11 | -17.75600 | 177.44853 | 55 ft | 10 kts | 66° |
| 2026-05-05 15:12 | -17.75542 | 177.44890 | 54 ft | 10 kts | 16° |
| 2026-05-05 15:12 | -17.75483 | 177.44907 | 52 ft | 8 kts | 11° |
| 2026-05-05 15:12 | -17.75435 | 177.44919 | 52 ft | 3 kts | 22° |
| 2026-05-05 15:12 | -17.75407 | 177.44925 | 51 ft | 5 kts | 6° |
| 2026-05-05 15:13 | -17.75323 | 177.44914 | 49 ft | 12 kts | 357° |
| 2026-05-05 15:13 | -17.75260 | 177.44926 | 49 ft | 15 kts | 18° |
| 2026-05-05 15:13 | -17.75183 | 177.44930 | 47 ft | 10 kts | 323° |
| 2026-05-05 15:13 | -17.75156 | 177.44852 | 45 ft | 12 kts | 287° |
| 2026-05-05 15:14 | -17.75143 | 177.44800 | 44 ft | 0 kts | 291° |
| 2026-05-05 15:14 | -17.75138 | 177.44785 | 43 ft | 3 kts | 286° |
| 2026-05-05 15:14 | -17.75131 | 177.44745 | 43 ft | 6 kts | 282° |
| 2026-05-05 15:14 | -17.75115 | 177.44690 | 42 ft | 8 kts | 275° |
| 2026-05-05 15:15 | -17.75132 | 177.44640 | 42 ft | 0 kts | 221° |
| 2026-05-05 15:15 | -17.75186 | 177.44598 | 43 ft | 34 kts | 218° |
| 2026-05-05 15:15 | -17.75563 | 177.44287 | 48 ft | 98 kts | 216° |
| 2026-05-05 15:15 | -17.76141 | 177.43814 | 342 ft | 110 kts | 216° |
| 2026-05-05 15:16 | -17.76755 | 177.43308 | 789 ft | 116 kts | 214° |
| 2026-05-05 15:16 | -17.77431 | 177.42767 | 1084 ft | 139 kts | 214° |
| 2026-05-05 15:16 | -17.78302 | 177.42067 | 1344 ft | 171 kts | 215° |
| 2026-05-05 15:16 | -17.79309 | 177.41251 | 1813 ft | 188 kts | 215° |
| 2026-05-05 15:17 | -17.80319 | 177.40431 | 2414 ft | 183 kts | 214° |
| 2026-05-05 15:17 | -17.81212 | 177.39467 | 2824 ft | 191 kts | 245° |
| 2026-05-05 15:17 | -17.81247 | 177.38097 | 3274 ft | 193 kts | 291° |
| 2026-05-05 15:17 | -17.80395 | 177.37061 | 3666 ft | 191 kts | 335° |
| 2026-05-05 15:18 | -17.79136 | 177.36923 | 4100 ft | 184 kts | 19° |
| 2026-05-05 15:18 | -17.78364 | 177.37170 | 4361 ft | 185 kts | 17° |